createdAt,value
2023-01-30T00:02:17.583Z,52.47
2023-01-30T00:07:21.802Z,42.60
2023-01-30T00:12:24.722Z,55.72
2023-01-30T00:17:27.495Z,57.40
2023-01-30T00:22:31.802Z,48.08
2023-01-30T00:27:34.567Z,46.95
2023-01-30T00:32:39.014Z,61.17
2023-01-30T00:37:43.135Z,49.00
2023-01-30T00:43:03.371Z,47.13
2023-01-30T00:48:06.770Z,48.72
2023-01-30T00:53:12.300Z,47.70
2023-01-30T00:58:15.094Z,44.28
2023-01-30T01:03:19.338Z,50.22
2023-01-30T01:08:23.524Z,59.83
2023-01-30T01:13:26.531Z,53.03
2023-01-30T01:18:29.346Z,42.08
2023-01-30T01:23:33.514Z,46.90
2023-01-30T01:28:37.596Z,49.53
2023-01-30T01:33:40.722Z,42.25
2023-01-30T01:38:44.907Z,69.90
2023-01-30T01:44:03.071Z,41.63
2023-01-30T01:49:13.587Z,43.28
2023-01-30T01:54:23.700Z,54.58
2023-01-30T01:59:31.587Z,65.93
2023-01-30T02:04:53.440Z,60.10
2023-01-30T02:09:58.459Z,59.20
2023-01-30T02:15:02.423Z,60.70
2023-01-30T02:20:16.926Z,64.53
2023-01-30T02:25:48.999Z,65.78
2023-01-30T02:31:14.299Z,52.20
2023-01-30T02:36:28.836Z,61.40
2023-01-30T02:41:37.316Z,55.58
2023-01-30T02:46:54.252Z,64.03
2023-01-30T02:52:00.147Z,44.38
2023-01-30T02:57:03.194Z,53.70
2023-01-30T03:02:23.901Z,71.10
2023-01-30T03:07:36.558Z,65.95
2023-01-30T03:17:49.594Z,68.65
2023-01-30T03:22:55.106Z,55.13
2023-01-30T03:27:58.597Z,57.40
2023-01-30T03:33:02.881Z,48.50
2023-01-30T03:38:06.073Z,51.65
2023-01-30T03:43:09.078Z,49.05
2023-01-30T03:48:14.302Z,61.28
2023-01-30T03:53:17.184Z,40.00
2023-01-30T03:58:20.158Z,43.92
2023-01-30T04:03:25.169Z,37.95
2023-01-30T04:08:31.897Z,26.35
2023-01-30T04:13:34.792Z,22.00
2023-01-30T04:18:39.018Z,35.75
2023-01-30T04:23:48.183Z,38.55
2023-01-30T04:28:50.992Z,47.17
2023-01-30T04:33:55.865Z,44.33
2023-01-30T04:38:59.242Z,42.75
2023-01-30T04:44:03.902Z,53.63
2023-01-30T04:49:08.101Z,33.40
2023-01-30T04:54:11.137Z,52.30
2023-01-30T04:59:14.046Z,35.38
2023-01-30T05:04:22.779Z,38.67
2023-01-30T05:09:25.570Z,46.15
2023-01-30T05:14:28.388Z,41.20
2023-01-30T05:19:32.785Z,32.00
2023-01-30T05:24:36.698Z,46.92
2023-01-30T05:29:39.497Z,22.88
2023-01-30T05:34:43.963Z,32.92
2023-01-30T05:39:46.767Z,35.47
2023-01-30T05:44:49.687Z,34.08
2023-01-30T05:49:53.834Z,37.50
2023-01-30T05:54:56.612Z,28.95
2023-01-30T05:59:59.437Z,27.98
2023-01-30T06:05:03.722Z,25.48
2023-01-30T06:10:07.311Z,25.80
2023-01-30T06:15:11.629Z,26.42
2023-01-30T06:20:15.889Z,19.23
2023-01-30T06:25:19.146Z,25.73
2023-01-30T06:30:22.321Z,25.67
2023-01-30T06:35:26.601Z,22.17
2023-01-30T06:40:29.434Z,20.80
2023-01-30T06:45:32.439Z,17.55
2023-01-30T06:50:37.256Z,26.05
2023-01-30T06:55:40.034Z,25.38
2023-01-30T07:00:43.931Z,18.73
2023-01-30T07:05:48.934Z,23.95
2023-01-30T07:10:51.881Z,21.95
2023-01-30T07:15:54.673Z,19.38
2023-01-30T07:20:58.823Z,21.33
2023-01-30T07:26:04.654Z,24.48
2023-01-30T07:31:07.526Z,15.10
2023-01-30T07:36:12.006Z,18.02
2023-01-30T07:41:14.805Z,15.13
2023-01-30T07:46:17.744Z,18.77
2023-01-30T07:51:21.919Z,17.48
2023-01-30T07:56:24.746Z,26.58
2023-01-30T08:01:27.591Z,18.02
2023-01-30T08:06:32.214Z,14.25
2023-01-30T08:11:35.396Z,12.15
2023-01-30T08:16:39.040Z,13.55
2023-01-30T08:21:43.249Z,7.82
2023-01-30T08:26:46.059Z,9.52
2023-01-30T08:31:48.985Z,15.27
2023-01-30T08:36:53.392Z,9.70
2023-01-30T08:41:56.167Z,17.30
2023-01-30T08:46:58.951Z,20.27
2023-01-30T08:52:03.106Z,15.48
2023-01-30T08:57:45.269Z,16.20
2023-01-30T09:02:48.086Z,9.00
2023-01-30T09:07:52.440Z,19.45
2023-01-30T09:12:55.140Z,19.67
2023-01-30T09:17:57.890Z,15.15
2023-01-30T09:23:02.531Z,13.93
2023-01-30T09:28:05.539Z,15.13
2023-01-30T09:33:08.294Z,18.58
2023-01-30T09:38:12.422Z,13.40
2023-01-30T09:43:30.130Z,15.25
2023-01-30T09:48:42.247Z,23.50
2023-01-30T09:54:04.776Z,17.42
2023-01-30T09:59:08.185Z,16.95
2023-01-30T10:04:19.672Z,19.92
2023-01-30T10:09:34.303Z,13.75
2023-01-30T10:14:56.649Z,18.08
2023-01-30T10:20:12.825Z,20.13
2023-01-30T10:25:27.738Z,16.00
2023-01-30T10:30:30.954Z,17.33
2023-01-30T10:35:37.788Z,20.25
2023-01-30T10:40:45.807Z,27.48
2023-01-30T10:45:56.981Z,13.90
2023-01-30T10:51:05.884Z,26.02
2023-01-30T10:56:19.719Z,19.40
2023-01-30T11:01:26.074Z,29.42
2023-01-30T11:06:29.130Z,19.73
2023-01-30T11:11:43.777Z,23.23
2023-01-30T11:16:49.160Z,13.43
2023-01-30T11:21:54.542Z,18.98
2023-01-30T11:27:12.525Z,11.30
2023-01-30T11:32:24.284Z,18.27
2023-01-30T11:37:33.071Z,15.57
2023-01-30T11:42:37.395Z,18.17
2023-01-30T11:47:56.652Z,24.98
2023-01-30T11:53:04.205Z,34.05
2023-01-30T11:58:10.621Z,9.25
2023-01-30T12:03:17.380Z,18.90
2023-01-30T12:08:40.529Z,18.92
2023-01-30T12:13:47.181Z,15.68
2023-01-30T12:18:57.305Z,17.25
2023-01-30T12:24:10.590Z,13.15
2023-01-30T12:29:24.910Z,15.73
2023-01-30T12:34:27.839Z,20.33
2023-01-30T12:39:42.406Z,19.30
2023-01-30T12:45:02.726Z,18.17
2023-01-30T12:50:25.052Z,13.77
2023-01-30T12:55:37.657Z,9.35
2023-01-30T13:00:54.568Z,7.75
2023-01-30T13:06:10.011Z,6.97
2023-01-30T13:11:29.163Z,6.00
2023-01-30T13:16:44.023Z,12.38
2023-01-30T13:21:55.472Z,14.68
2023-01-30T13:27:03.642Z,14.35
2023-01-30T13:32:15.857Z,9.25
2023-01-30T13:37:20.579Z,12.98
2023-01-30T13:42:32.103Z,11.00
2023-01-30T13:47:47.147Z,15.55
2023-01-30T13:52:57.507Z,8.82
2023-01-30T13:58:11.563Z,12.23
2023-01-30T14:03:31.792Z,10.05
2023-01-30T14:08:39.923Z,12.70
2023-01-30T14:13:53.612Z,8.88
2023-01-30T14:18:57.793Z,7.30
2023-01-30T14:24:02.574Z,12.57
2023-01-30T14:29:05.353Z,16.42
2023-01-30T14:34:47.255Z,15.90
2023-01-30T14:39:55.472Z,14.27
2023-01-30T14:45:06.477Z,7.43
2023-01-30T14:50:19.912Z,18.45
2023-01-30T14:55:29.389Z,12.85
2023-01-30T15:00:36.024Z,12.20
2023-01-30T15:05:44.773Z,10.77
2023-01-30T15:11:04.517Z,8.20
2023-01-30T15:16:17.304Z,23.55
2023-01-30T15:21:37.420Z,9.60
2023-01-30T15:26:52.346Z,13.60
2023-01-30T15:31:56.354Z,7.70
2023-01-30T15:36:59.602Z,15.40
2023-01-30T15:42:08.840Z,11.95
2023-01-30T15:47:23.239Z,26.20
2023-01-30T15:52:36.059Z,15.88
2023-01-30T15:57:41.296Z,14.00
2023-01-30T16:02:44.453Z,17.00
2023-01-30T16:07:49.112Z,15.38
2023-01-30T16:12:56.162Z,15.77
2023-01-30T16:18:05.554Z,17.38
2023-01-30T16:23:21.610Z,17.13
2023-01-30T16:28:28.129Z,18.55
2023-01-30T16:33:36.397Z,17.98
2023-01-30T16:38:44.270Z,28.85
2023-01-30T16:43:48.509Z,20.52
2023-01-30T16:48:52.077Z,12.77
2023-01-30T16:54:00.119Z,29.98
2023-01-30T16:59:05.189Z,28.48
2023-01-30T17:04:18.878Z,20.88
2023-01-30T17:09:51.868Z,21.35
2023-01-30T17:15:27.239Z,30.33
2023-01-30T17:20:38.987Z,22.55
2023-01-30T17:25:44.452Z,16.50
2023-01-30T17:30:49.104Z,21.63
2023-01-30T17:35:51.952Z,29.15
2023-01-30T17:40:54.695Z,17.50
2023-01-30T17:45:58.815Z,26.42
2023-01-30T17:51:01.617Z,25.23
2023-01-30T17:56:04.647Z,19.75
2023-01-30T18:01:08.758Z,16.27
2023-01-30T18:06:13.801Z,26.08
2023-01-30T18:11:17.275Z,19.52
2023-01-30T18:16:26.020Z,27.33
2023-01-30T18:21:28.862Z,21.45
2023-01-30T18:26:31.962Z,25.42
2023-01-30T18:31:36.440Z,19.60
2023-01-30T18:36:39.610Z,18.30
2023-01-30T18:41:42.427Z,25.42
2023-01-30T18:46:46.663Z,31.55
2023-01-30T18:51:49.515Z,21.48
2023-01-30T18:56:52.331Z,22.65
2023-01-30T19:01:56.494Z,21.02
2023-01-30T19:06:59.288Z,23.73
2023-01-30T19:12:15.917Z,21.80
2023-01-30T19:17:20.091Z,30.38
2023-01-30T19:22:22.939Z,20.17
2023-01-30T19:27:25.982Z,24.52
2023-01-30T19:32:30.202Z,30.75
2023-01-30T19:37:33.003Z,24.00
2023-01-30T19:42:37.468Z,21.55
2023-01-30T19:47:42.859Z,17.77
2023-01-30T19:52:45.729Z,35.40
2023-01-30T19:57:48.540Z,20.77
2023-01-30T20:02:53.296Z,11.80
2023-01-30T20:07:56.077Z,25.20
2023-01-30T20:12:58.959Z,24.58
2023-01-30T20:18:03.104Z,19.08
2023-01-30T20:23:05.865Z,20.00
2023-01-30T20:28:09.567Z,18.25
2023-01-30T20:33:13.733Z,19.33
2023-01-30T20:38:16.600Z,26.85
2023-01-30T20:43:19.450Z,21.08
2023-01-30T20:48:23.631Z,26.83
2023-01-30T20:53:26.769Z,20.00
2023-01-30T20:58:30.669Z,25.02
2023-01-30T21:03:35.158Z,28.73
2023-01-30T21:08:39.398Z,28.00
2023-01-30T21:13:42.683Z,24.65
2023-01-30T21:18:49.921Z,23.45
2023-01-30T21:23:54.887Z,26.95
2023-01-30T21:28:58.981Z,23.98
2023-01-30T21:34:03.740Z,18.27
2023-01-30T21:39:24.000Z,22.83
2023-01-30T21:44:28.632Z,25.27
2023-01-30T21:49:33.635Z,12.50
2023-01-30T21:54:36.562Z,29.45
2023-01-30T21:59:39.359Z,18.20
2023-01-30T22:04:43.844Z,17.65
2023-01-30T22:09:48.693Z,31.35
2023-01-30T22:14:51.536Z,30.95
2023-01-30T22:19:55.697Z,23.50
2023-01-30T22:24:59.593Z,16.95
2023-01-30T22:30:02.359Z,13.40
2023-01-30T22:35:07.402Z,29.77
2023-01-30T22:40:11.491Z,23.73
2023-01-30T22:45:14.352Z,20.98
2023-01-30T22:50:18.904Z,23.67
2023-01-30T22:55:22.017Z,29.73
2023-01-30T23:00:25.121Z,30.38
2023-01-30T23:05:29.201Z,23.92
2023-01-30T23:10:31.990Z,17.02
2023-01-30T23:15:36.805Z,18.88
2023-01-30T23:20:40.901Z,16.10
2023-01-30T23:25:43.801Z,29.13
2023-01-30T23:30:46.639Z,20.92
2023-01-30T23:35:50.812Z,14.18
2023-01-30T23:40:53.704Z,26.27
2023-01-30T23:45:57.909Z,22.30
2023-01-30T23:51:03.249Z,21.85
2023-01-30T23:56:07.689Z,21.23
